Time;durP1;ratioP1;P1;durP2;ratioP2;P2;SDS_P1;SDS_P2;PMS_P1;PMS_P2;Temp;Humidity;BMP_temperature;BMP_pressure;BME280_temperature;BME280_humidity;BME280_pressure;Samples;Min_cycle;Max_cycle;Signal;HPM_P1;HPM_P2
2023/09/23 00:04:46;;;;;;;10.02;8.85;;;;;;;;;;10100115;28;20046;-71
2023/09/23 00:09:42;;;;;;;10.15;9.15;;;;;;;;;;10096148;28;20065;-71
2023/09/23 00:14:39;;;;;;;10.27;9.27;;;;;;;;;;10097617;28;20053;-71
2023/09/23 00:19:35;;;;;;;10.68;8.95;;;;;;;;;;10103724;28;20462;-71
2023/09/23 00:24:31;;;;;;;9.57;8.57;;;;;;;;;;10102023;28;20195;-71
2023/09/23 00:29:28;;;;;;;9.13;8.25;;;;;;;;;;10092787;28;20415;-71
2023/09/23 00:34:24;;;;;;;9.05;8.20;;;;;;;;;;10104229;28;20465;-71
2023/09/23 00:39:20;;;;;;;12.48;8.73;;;;;;;;;;10092686;28;20047;-71
2023/09/23 00:44:17;;;;;;;9.85;8.80;;;;;;;;;;10089626;28;20055;-71
2023/09/23 00:49:13;;;;;;;10.65;9.65;;;;;;;;;;10104947;28;20054;-71
2023/09/23 00:54:13;;;;;;;9.55;8.63;;;;;;;;;;10099209;28;20051;-71
2023/09/23 00:59:11;;;;;;;8.73;7.95;;;;;;;;;;10099633;28;20043;-71
2023/09/23 01:04:09;;;;;;;8.32;7.57;;;;;;;;;;10104049;28;20058;-71
2023/09/23 01:09:12;;;;;;;10.48;8.20;;;;;;;;;;10090416;28;20063;-71
2023/09/23 01:14:09;;;;;;;;;;;;;;;;;;10103940;28;20066;-71
2023/09/23 01:19:05;;;;;;;10.50;9.45;;;;;;;;;;10100772;28;19996;-71
2023/09/23 01:24:02;;;;;;;9.55;8.63;;;;;;;;;;10094857;28;20051;-71
2023/09/23 01:28:58;;;;;;;9.80;8.80;;;;;;;;;;10090376;28;20102;-71
2023/09/23 01:34:04;;;;;;;11.02;9.55;;;;;;;;;;10074206;28;20062;-71
2023/09/23 01:39:04;;;;;;;10.43;9.60;;;;;;;;;;10098976;28;20089;-71
2023/09/23 01:44:01;;;;;;;10.73;9.85;;;;;;;;;;10101352;28;20061;-71
2023/09/23 01:48:57;;;;;;;11.27;10.18;;;;;;;;;;10082729;28;20108;-71
2023/09/23 01:53:55;;;;;;;11.30;10.43;;;;;;;;;;10090416;28;20137;-71
2023/09/23 01:58:51;;;;;;;11.32;10.43;;;;;;;;;;10099086;28;20067;-71
2023/09/23 02:03:49;;;;;;;10.63;9.68;;;;;;;;;;10099668;28;20075;-71
2023/09/23 02:08:45;;;;;;;10.43;9.45;;;;;;;;;;10096011;28;20081;-71
2023/09/23 02:13:43;;;;;;;13.23;11.90;;;;;;;;;;10092072;28;20055;-71
2023/09/23 02:18:39;;;;;;;12.35;11.27;;;;;;;;;;10089873;28;20081;-71
2023/09/23 02:23:36;;;;;;;13.40;12.18;;;;;;;;;;10088126;28;20499;-71
2023/09/23 02:28:32;;;;;;;13.80;12.50;;;;;;;;;;10092746;28;20058;-71
2023/09/23 02:33:30;;;;;;;13.32;12.23;;;;;;;;;;10077856;28;20054;-71
2023/09/23 02:38:26;;;;;;;15.32;14.07;;;;;;;;;;10095232;28;20062;-71
2023/09/23 02:43:22;;;;;;;14.50;13.20;;;;;;;;;;10091984;28;20050;-71
2023/09/23 02:48:19;;;;;;;14.95;13.75;;;;;;;;;;10089750;28;20186;-70
2023/09/23 02:53:16;;;;;;;15.98;14.63;;;;;;;;;;10076569;28;20059;-70
2023/09/23 02:58:13;;;;;;;16.98;15.68;;;;;;;;;;10098208;28;20083;-70
2023/09/23 03:03:18;;;;;;;17.75;16.15;;;;;;;;;;10100114;28;20094;-70
2023/09/23 03:08:15;;;;;;;17.48;15.88;;;;;;;;;;10104910;28;20159;-70
2023/09/23 03:13:12;;;;;;;17.67;16.25;;;;;;;;;;10097649;28;20055;-71
2023/09/23 03:18:09;;;;;;;18.52;16.77;;;;;;;;;;10105818;28;20479;-70
2023/09/23 03:23:10;;;;;;;18.25;16.45;;;;;;;;;;10108980;28;20054;-70
2023/09/23 03:28:07;;;;;;;19.38;17.60;;;;;;;;;;10099488;28;20059;-71
2023/09/23 03:33:03;;;;;;;20.27;18.30;;;;;;;;;;10107078;28;20515;-70
2023/09/23 03:38:00;;;;;;;19.40;17.80;;;;;;;;;;10096363;28;20415;-71
2023/09/23 03:42:58;;;;;;;19.27;17.40;;;;;;;;;;10094718;28;20059;-71
2023/09/23 03:47:54;;;;;;;19.88;18.17;;;;;;;;;;10097386;28;20048;-70
2023/09/23 03:52:51;;;;;;;18.42;16.92;;;;;;;;;;10100419;28;20138;-71
2023/09/23 03:57:47;;;;;;;18.50;17.00;;;;;;;;;;10089407;28;20605;-71
2023/09/23 04:02:49;;;;;;;20.15;18.33;;;;;;;;;;10108600;28;20051;-71
2023/09/23 04:07:49;;;;;;;;;;;;;;;;;;10103604;28;20079;-71
2023/09/23 04:12:46;;;;;;;21.48;19.55;;;;;;;;;;10110569;28;19922;-70
2023/09/23 04:17:42;;;;;;;24.25;21.80;;;;;;;;;;10100968;28;20065;-70
2023/09/23 04:22:40;;;;;;;24.92;22.63;;;;;;;;;;10106601;28;20049;-71
2023/09/23 04:27:37;;;;;;;26.55;23.92;;;;;;;;;;10100197;28;20047;-71
2023/09/23 04:32:34;;;;;;;25.40;23.20;;;;;;;;;;10109714;28;20085;-71
2023/09/23 04:37:33;;;;;;;25.17;22.88;;;;;;;;;;10101523;28;20051;-70
2023/09/23 04:42:30;;;;;;;23.95;21.67;;;;;;;;;;10085493;28;20054;-71
2023/09/23 04:47:26;;;;;;;23.33;21.25;;;;;;;;;;10097293;28;20078;-71
2023/09/23 04:52:23;;;;;;;23.58;21.48;;;;;;;;;;10092805;28;20062;-71
2023/09/23 04:57:20;;;;;;;24.08;21.98;;;;;;;;;;10101517;28;20105;-71
2023/09/23 05:02:16;;;;;;;25.38;22.77;;;;;;;;;;10081029;28;20104;-71
2023/09/23 05:07:13;;;;;;;27.77;25.08;;;;;;;;;;10093826;28;20082;-71
2023/09/23 05:12:09;;;;;;;27.85;25.38;;;;;;;;;;10087214;28;20136;-71
2023/09/23 05:17:06;;;;;;;29.30;26.60;;;;;;;;;;10097173;28;20412;-71
2023/09/23 05:22:03;;;;;;;30.05;27.25;;;;;;;;;;10090698;28;20074;-70
2023/09/23 05:27:00;;;;;;;29.42;26.60;;;;;;;;;;10098146;28;20062;-71
2023/09/23 05:31:57;;;;;;;26.80;24.45;;;;;;;;;;10087003;28;20053;-71
2023/09/23 05:36:53;;;;;;;26.10;23.67;;;;;;;;;;10101806;28;20515;-71
2023/09/23 05:41:51;;;;;;;23.50;21.25;;;;;;;;;;10102133;28;20039;-71
2023/09/23 05:46:48;;;;;;;24.05;21.75;;;;;;;;;;10098251;28;20050;-71
2023/09/23 05:51:45;;;;;;;26.13;23.70;;;;;;;;;;10096800;28;20058;-70
2023/09/23 05:56:42;;;;;;;25.02;22.52;;;;;;;;;;10100212;28;20453;-71
2023/09/23 06:01:40;;;;;;;26.35;23.75;;;;;;;;;;10098170;28;20050;-71
2023/09/23 06:06:40;;;;;;;26.45;23.73;;;;;;;;;;10098603;28;20510;-71
2023/09/23 06:11:37;;;;;;;26.83;24.15;;;;;;;;;;10100057;28;20101;-71
2023/09/23 06:16:34;;;;;;;25.50;23.23;;;;;;;;;;10098351;28;20054;-71
2023/09/23 06:21:30;;;;;;;25.83;23.42;;;;;;;;;;10105808;28;20163;-71
2023/09/23 06:26:26;;;;;;;24.40;22.15;;;;;;;;;;10106325;28;20403;-70
2023/09/23 06:31:23;;;;;;;25.70;23.30;;;;;;;;;;10108305;28;20486;-70
2023/09/23 06:36:19;;;;;;;25.67;22.60;;;;;;;;;;10099452;28;20464;-70
2023/09/23 06:41:15;;;;;;;24.33;22.20;;;;;;;;;;10111093;28;20515;-70
2023/09/23 06:46:12;;;;;;;22.10;19.90;;;;;;;;;;10108554;28;20055;-71
2023/09/23 06:51:08;;;;;;;23.40;21.20;;;;;;;;;;10107748;28;20106;-70
2023/09/23 06:56:05;;;;;;;22.80;20.70;;;;;;;;;;10103470;28;20058;-71
2023/09/23 07:01:01;;;;;;;20.98;19.17;;;;;;;;;;10103141;28;20055;-70
2023/09/23 07:05:57;;;;;;;19.13;17.40;;;;;;;;;;10106486;28;20046;-70
2023/09/23 07:10:55;;;;;;;16.45;14.85;;;;;;;;;;10101464;28;20063;-70
2023/09/23 07:15:51;;;;;;;13.52;12.38;;;;;;;;;;10102383;28;20058;-70
2023/09/23 07:20:47;;;;;;;13.88;12.63;;;;;;;;;;10103710;28;20076;-70
2023/09/23 07:25:44;;;;;;;13.98;12.82;;;;;;;;;;10100681;28;20058;-70
2023/09/23 07:30:40;;;;;;;11.88;10.88;;;;;;;;;;10113310;28;20046;-70
2023/09/23 07:35:36;;;;;;;11.77;10.77;;;;;;;;;;10109334;28;20053;-70
2023/09/23 07:40:37;;;;;;;11.30;10.40;;;;;;;;;;10104058;28;20523;-70
2023/09/23 07:45:33;;;;;;;11.40;10.43;;;;;;;;;;10096122;28;20507;-70
2023/09/23 07:50:30;;;;;;;10.85;9.75;;;;;;;;;;10087058;28;20507;-71
2023/09/23 07:55:27;;;;;;;10.13;9.05;;;;;;;;;;10099527;28;20047;-70
2023/09/23 08:00:24;;;;;;;8.90;8.10;;;;;;;;;;10085244;28;20046;-71
2023/09/23 08:05:24;;;;;;;8.85;8.00;;;;;;;;;;10096328;28;20071;-71
2023/09/23 08:10:20;;;;;;;7.80;7.10;;;;;;;;;;10095679;28;20055;-71
2023/09/23 08:15:17;;;;;;;8.18;7.40;;;;;;;;;;10094636;28;20054;-71
2023/09/23 08:20:21;;;;;;;9.75;8.00;;;;;;;;;;10097955;28;20051;-71
2023/09/23 08:25:17;;;;;;;7.88;7.18;;;;;;;;;;10094889;28;20147;-72
2023/09/23 08:30:17;;;;;;;8.15;7.40;;;;;;;;;;10090179;28;20085;-71
2023/09/23 08:35:13;;;;;;;7.80;7.00;;;;;;;;;;10098155;28;20043;-71
2023/09/23 08:40:10;;;;;;;7.70;6.60;;;;;;;;;;10097805;28;20054;-71
2023/09/23 08:45:08;;;;;;;7.25;6.55;;;;;;;;;;10096395;28;20066;-72
2023/09/23 08:50:11;;;;;;;10.57;6.18;;;;;;;;;;10099422;28;20141;-71
2023/09/23 08:55:10;;;;;;;8.07;7.38;;;;;;;;;;10105077;28;20071;-71
2023/09/23 09:00:08;;;;;;;8.80;8.07;;;;;;;;;;10108213;28;20054;-71
2023/09/23 09:05:15;;;;;;;8.63;7.72;;;;;;;;;;10328865;27;20122;-71
2023/09/23 09:10:12;;;;;;;10.15;9.25;;;;;;;;;;10298224;28;20069;-71
2023/09/23 09:15:08;;;;;;;8.73;7.85;;;;;;;;;;10259083;28;20045;-71
2023/09/23 09:20:11;;;;;;;10.30;9.38;;;;;;;;;;10291800;28;20045;-71
2023/09/23 09:25:11;;;;;;;9.40;8.57;;;;;;;;;;10250924;28;20119;-71
2023/09/23 09:30:11;;;;;;;9.05;7.93;;;;;;;;;;10247450;28;20060;-71
2023/09/23 09:35:13;;;;;;;8.75;7.97;;;;;;;;;;10294141;28;20076;-71
2023/09/23 09:40:23;;;;;;;8.35;7.40;;;;;;;;;;10255314;28;20045;-71
2023/09/23 09:45:23;;;;;;;7.47;6.72;;;;;;;;;;10290097;28;20052;-71
2023/09/23 09:50:22;;;;;;;8.35;7.55;;;;;;;;;;10283941;28;20154;-71
2023/09/23 09:55:20;;;;;;;11.75;7.03;;;;;;;;;;10297787;28;20063;-72
2023/09/23 10:00:52;;;;;;;7.60;6.80;;;;;;;;;;10261978;28;20053;-71
2023/09/23 10:05:41;;;;;;;7.65;6.95;;;;;;;;;;10286108;28;20049;-71
2023/09/23 10:10:43;;;;;;;6.53;5.93;;;;;;;;;;10279312;28;20076;-71
2023/09/23 10:15:40;;;;;;;10.82;6.18;;;;;;;;;;10232096;28;20064;-71
2023/09/23 10:20:41;;;;;;;7.20;6.60;;;;;;;;;;10267358;28;20398;-72
2023/09/23 10:25:39;;;;;;;7.63;6.97;;;;;;;;;;10225262;28;20124;-72
2023/09/23 10:30:37;;;;;;;7.75;7.00;;;;;;;;;;10262912;28;20041;-71
2023/09/23 10:35:35;;;;;;;7.22;6.60;;;;;;;;;;10238571;28;20049;-71
2023/09/23 10:40:32;;;;;;;7.60;6.90;;;;;;;;;;10268958;28;20068;-71
2023/09/23 10:45:28;;;;;;;7.97;6.93;;;;;;;;;;10261472;28;20053;-71
2023/09/23 10:50:24;;;;;;;7.50;6.55;;;;;;;;;;10219011;28;20044;-71
2023/09/23 10:55:21;;;;;;;7.30;6.60;;;;;;;;;;10250007;28;20487;-71
2023/09/23 11:00:21;;;;;;;7.05;6.22;;;;;;;;;;10227244;28;20050;-71
2023/09/23 11:05:18;;;;;;;7.53;6.93;;;;;;;;;;10262477;28;20045;-71
2023/09/23 11:10:14;;;;;;;9.60;7.10;;;;;;;;;;10227802;28;20598;-71
2023/09/23 11:15:12;;;;;;;7.68;7.07;;;;;;;;;;10213332;28;20068;-72
2023/09/23 11:20:10;;;;;;;8.55;7.70;;;;;;;;;;10216351;28;20057;-71
2023/09/23 11:25:11;;;;;;;8.68;7.88;;;;;;;;;;10217602;28;20049;-71
2023/09/23 11:30:08;;;;;;;9.47;7.80;;;;;;;;;;10219989;28;20100;-71
2023/09/23 11:35:05;;;;;;;8.25;7.55;;;;;;;;;;10266821;28;20902;-71
2023/09/23 11:40:03;;;;;;;8.40;7.70;;;;;;;;;;10221120;28;20657;-71
2023/09/23 11:44:59;;;;;;;7.93;7.22;;;;;;;;;;10265247;28;20559;-72
2023/09/23 11:49:55;;;;;;;9.13;8.15;;;;;;;;;;10212892;28;20061;-71
2023/09/23 11:54:52;;;;;;;8.93;8.13;;;;;;;;;;10268197;28;20075;-71
2023/09/23 11:59:48;;;;;;;8.35;7.55;;;;;;;;;;10217231;28;20517;-71
2023/09/23 12:04:46;;;;;;;8.45;7.75;;;;;;;;;;10211813;28;20047;-71
2023/09/23 12:09:43;;;;;;;8.95;8.05;;;;;;;;;;10257894;28;20045;-71
2023/09/23 12:14:42;;;;;;;10.85;9.10;;;;;;;;;;10226292;28;20052;-71
2023/09/23 12:19:38;;;;;;;10.00;9.10;;;;;;;;;;10257877;28;20508;-71
2023/09/23 12:24:35;;;;;;;10.63;9.63;;;;;;;;;;10262305;28;20052;-71
2023/09/23 12:29:31;;;;;;;12.65;9.93;;;;;;;;;;10230954;28;20095;-71
2023/09/23 12:34:28;;;;;;;11.48;10.40;;;;;;;;;;10216462;28;20140;-71
2023/09/23 12:39:24;;;;;;;11.85;10.85;;;;;;;;;;10223572;28;20169;-71
2023/09/23 12:44:21;;;;;;;11.27;10.05;;;;;;;;;;10204652;28;20060;-71
2023/09/23 12:49:18;;;;;;;10.80;9.35;;;;;;;;;;10206268;28;20044;-71
2023/09/23 12:54:15;;;;;;;10.32;9.32;;;;;;;;;;10254645;28;20472;-71
2023/09/23 12:59:12;;;;;;;9.68;8.70;;;;;;;;;;10264671;28;20439;-71
2023/09/23 13:04:08;;;;;;;10.38;9.27;;;;;;;;;;10215705;28;20458;-72
2023/09/23 13:09:05;;;;;;;10.20;8.98;;;;;;;;;;10220763;28;20053;-71
2023/09/23 13:14:01;;;;;;;10.23;9.25;;;;;;;;;;10254291;28;20051;-71
2023/09/23 13:18:58;;;;;;;9.00;8.23;;;;;;;;;;10230336;28;20057;-71
2023/09/23 13:23:55;;;;;;;9.30;7.88;;;;;;;;;;10211457;28;20050;-71
2023/09/23 13:28:51;;;;;;;9.48;8.18;;;;;;;;;;10252377;28;20101;-71
2023/09/23 13:33:48;;;;;;;10.57;8.70;;;;;;;;;;10223882;28;20049;-71
2023/09/23 13:38:46;;;;;;;9.60;8.63;;;;;;;;;;10205350;28;20065;-71
2023/09/23 13:43:43;;;;;;;9.40;8.60;;;;;;;;;;10220406;28;20053;-71
2023/09/23 13:48:39;;;;;;;9.68;8.77;;;;;;;;;;10216885;28;20045;-71
2023/09/23 13:53:36;;;;;;;9.25;8.40;;;;;;;;;;10253567;28;20512;-71
2023/09/23 13:58:33;;;;;;;9.77;8.77;;;;;;;;;;10245074;28;20076;-71
2023/09/23 14:03:29;;;;;;;10.60;8.25;;;;;;;;;;10225738;28;20064;-71
2023/09/23 14:08:26;;;;;;;9.05;8.15;;;;;;;;;;10219268;28;20041;-71
2023/09/23 14:13:22;;;;;;;8.07;7.35;;;;;;;;;;10220400;28;20063;-71
2023/09/23 14:18:19;;;;;;;8.70;7.80;;;;;;;;;;10221921;28;20044;-71
2023/09/23 14:23:15;;;;;;;9.52;7.30;;;;;;;;;;10251732;28;20041;-71
2023/09/23 14:28:12;;;;;;;7.43;6.70;;;;;;;;;;10246577;28;20045;-71
2023/09/23 14:33:08;;;;;;;8.45;6.88;;;;;;;;;;10225286;28;20046;-71
2023/09/23 14:38:04;;;;;;;7.18;6.47;;;;;;;;;;10211154;28;20678;-71
2023/09/23 14:43:01;;;;;;;6.78;6.18;;;;;;;;;;10245435;28;20539;-71
2023/09/23 14:47:57;;;;;;;8.40;6.72;;;;;;;;;;10232610;28;20060;-71
2023/09/23 14:52:55;;;;;;;6.93;6.18;;;;;;;;;;10244217;28;20044;-71
2023/09/23 14:57:54;;;;;;;6.35;5.75;;;;;;;;;;10246359;28;20049;-71
2023/09/23 15:02:50;;;;;;;7.25;5.90;;;;;;;;;;10219985;28;20045;-71
2023/09/23 15:07:47;;;;;;;6.82;6.15;;;;;;;;;;10219608;28;20117;-71
2023/09/23 15:12:44;;;;;;;7.72;7.03;;;;;;;;;;10220054;28;20417;-71
2023/09/23 15:17:41;;;;;;;6.93;6.22;;;;;;;;;;10223937;28;20060;-71
2023/09/23 15:22:37;;;;;;;8.18;6.18;;;;;;;;;;10237483;28;20068;-71
2023/09/23 15:27:34;;;;;;;7.25;6.55;;;;;;;;;;10236303;28;20386;-71
2023/09/23 15:32:31;;;;;;;6.70;6.07;;;;;;;;;;10237734;28;20632;-71
2023/09/23 15:37:27;;;;;;;8.07;6.70;;;;;;;;;;10245124;28;20485;-71
2023/09/23 15:42:25;;;;;;;7.60;6.45;;;;;;;;;;10221415;28;20053;-71
2023/09/23 15:47:22;;;;;;;8.43;6.40;;;;;;;;;;10221626;28;20038;-71
2023/09/23 15:52:18;;;;;;;7.47;6.78;;;;;;;;;;10241427;28;20044;-71
2023/09/23 15:57:15;;;;;;;10.73;7.55;;;;;;;;;;10247918;28;20068;-71
2023/09/23 16:02:11;;;;;;;12.07;7.35;;;;;;;;;;10219255;28;20053;-71
2023/09/23 16:07:08;;;;;;;7.30;6.60;;;;;;;;;;10238672;28;20037;-71
2023/09/23 16:12:06;;;;;;;7.50;6.50;;;;;;;;;;10249945;28;20394;-70
2023/09/23 16:17:03;;;;;;;8.80;6.68;;;;;;;;;;10221335;28;20161;-71
2023/09/23 16:21:59;;;;;;;6.00;5.40;;;;;;;;;;10207536;28;20037;-71
2023/09/23 16:26:57;;;;;;;6.50;6.00;;;;;;;;;;10216467;28;20045;-70
2023/09/23 16:31:53;;;;;;;6.35;5.68;;;;;;;;;;10241252;28;20059;-70
2023/09/23 16:36:49;;;;;;;5.95;5.45;;;;;;;;;;10247448;28;20050;-70
2023/09/23 16:41:45;;;;;;;6.40;5.60;;;;;;;;;;10215755;28;20041;-70
2023/09/23 16:46:42;;;;;;;5.78;5.28;;;;;;;;;;10216928;28;20505;-70
2023/09/23 16:51:39;;;;;;;5.63;5.10;;;;;;;;;;10233727;28;20053;-70
2023/09/23 16:56:35;;;;;;;5.57;5.07;;;;;;;;;;10250481;28;20066;-70
2023/09/23 17:01:31;;;;;;;5.78;5.28;;;;;;;;;;10211725;28;20140;-71
2023/09/23 17:06:28;;;;;;;5.85;5.35;;;;;;;;;;10210792;28;20046;-72
2023/09/23 17:11:24;;;;;;;8.02;5.60;;;;;;;;;;10215856;28;20033;-72
2023/09/23 17:16:20;;;;;;;6.15;5.55;;;;;;;;;;10216222;28;20061;-72
2023/09/23 17:21:18;;;;;;;5.57;5.07;;;;;;;;;;10231575;28;20044;-73
2023/09/23 17:26:15;;;;;;;5.95;5.30;;;;;;;;;;10240230;28;20053;-72
2023/09/23 17:31:11;;;;;;;6.10;5.07;;;;;;;;;;10227867;28;20639;-73
2023/09/23 17:36:09;;;;;;;5.50;5.00;;;;;;;;;;10232027;28;20066;-75
2023/09/23 17:41:05;;;;;;;6.93;5.60;;;;;;;;;;10231876;28;20037;-73
2023/09/23 17:46:03;;;;;;;6.88;5.93;;;;;;;;;;10226826;28;20041;-70
2023/09/23 17:50:59;;;;;;;6.07;5.50;;;;;;;;;;10228946;28;20077;-71
2023/09/23 17:55:56;;;;;;;7.18;6.18;;;;;;;;;;10266431;28;20577;-71
2023/09/23 18:00:53;;;;;;;7.32;6.70;;;;;;;;;;10213195;28;20506;-72
2023/09/23 18:05:50;;;;;;;7.50;6.80;;;;;;;;;;10217462;28;20141;-72
2023/09/23 18:10:48;;;;;;;7.60;6.55;;;;;;;;;;10218980;28;20092;-71
2023/09/23 18:15:45;;;;;;;7.72;6.95;;;;;;;;;;10226380;28;20045;-72
2023/09/23 18:20:41;;;;;;;9.05;7.72;;;;;;;;;;10218861;28;20045;-73
2023/09/23 18:25:37;;;;;;;7.78;7.07;;;;;;;;;;10228054;28;20076;-72
2023/09/23 18:30:34;;;;;;;9.45;7.15;;;;;;;;;;10214888;28;20064;-72
2023/09/23 18:35:31;;;;;;;9.60;7.38;;;;;;;;;;10223760;28;20045;-72
2023/09/23 18:40:29;;;;;;;8.07;7.30;;;;;;;;;;10265887;28;20061;-72
2023/09/23 18:45:26;;;;;;;10.05;9.00;;;;;;;;;;10219999;28;20073;-72
2023/09/23 18:50:22;;;;;;;8.55;7.75;;;;;;;;;;10229398;28;20057;-72
2023/09/23 18:55:18;;;;;;;9.00;7.45;;;;;;;;;;10263594;28;20544;-72
2023/09/23 19:00:15;;;;;;;9.60;8.50;;;;;;;;;;10228706;28;20508;-72
2023/09/23 19:05:12;;;;;;;10.10;8.68;;;;;;;;;;10218796;28;20517;-72
2023/09/23 19:10:10;;;;;;;9.23;8.32;;;;;;;;;;10219992;28;20604;-72
2023/09/23 19:15:07;;;;;;;9.43;8.45;;;;;;;;;;10225238;28;20061;-72
2023/09/23 19:20:05;;;;;;;9.68;8.70;;;;;;;;;;10221157;28;20053;-72
2023/09/23 19:25:02;;;;;;;9.63;8.82;;;;;;;;;;10274039;28;20492;-72
2023/09/23 19:29:58;;;;;;;9.50;8.65;;;;;;;;;;10226971;28;20096;-73
2023/09/23 19:34:54;;;;;;;9.65;8.75;;;;;;;;;;10222208;28;20575;-72
2023/09/23 19:39:50;;;;;;;10.23;9.32;;;;;;;;;;10224278;28;20045;-72
2023/09/23 19:44:47;;;;;;;10.88;9.82;;;;;;;;;;10262011;28;20059;-72
2023/09/23 19:49:43;;;;;;;10.48;9.32;;;;;;;;;;10217688;28;20435;-72
2023/09/23 19:54:40;;;;;;;14.27;10.65;;;;;;;;;;10221187;28;20058;-72
2023/09/23 19:59:36;;;;;;;11.07;10.07;;;;;;;;;;10223942;28;20077;-72
2023/09/23 20:04:33;;;;;;;11.18;10.18;;;;;;;;;;10215677;28;20041;-72
2023/09/23 20:09:32;;;;;;;11.75;10.63;;;;;;;;;;10213729;28;20125;-72
2023/09/23 20:14:29;;;;;;;13.27;12.18;;;;;;;;;;10217859;28;20522;-72
2023/09/23 20:19:27;;;;;;;11.95;10.85;;;;;;;;;;10261605;28;20052;-72
2023/09/23 20:24:23;;;;;;;11.52;10.48;;;;;;;;;;10220089;28;20044;-72
2023/09/23 20:29:21;;;;;;;13.48;9.90;;;;;;;;;;10263311;28;20164;-71
2023/09/23 20:34:17;;;;;;;11.85;10.75;;;;;;;;;;10229191;28;20515;-72
2023/09/23 20:39:14;;;;;;;11.60;10.52;;;;;;;;;;10210525;28;20464;-72
2023/09/23 20:44:10;;;;;;;12.45;11.27;;;;;;;;;;10227309;28;20080;-72
2023/09/23 20:49:07;;;;;;;11.85;10.65;;;;;;;;;;10216685;28;20053;-72
2023/09/23 20:54:03;;;;;;;11.15;10.15;;;;;;;;;;10219964;28;20095;-72
2023/09/23 20:59:01;;;;;;;11.30;10.27;;;;;;;;;;10212144;28;20058;-73
2023/09/23 21:03:57;;;;;;;11.82;10.80;;;;;;;;;;10258277;28;20045;-72
2023/09/23 21:08:55;;;;;;;11.82;10.93;;;;;;;;;;10224455;28;20512;-72
2023/09/23 21:13:56;;;;;;;12.00;10.95;;;;;;;;;;10243927;28;20087;-72
2023/09/23 21:18:52;;;;;;;13.20;12.10;;;;;;;;;;10263518;28;20504;-72
2023/09/23 21:23:52;;;;;;;14.20;12.65;;;;;;;;;;10259933;28;20041;-72
2023/09/23 21:28:49;;;;;;;12.95;11.70;;;;;;;;;;10266483;28;20554;-70
2023/09/23 21:33:45;;;;;;;12.18;11.00;;;;;;;;;;10216593;28;20127;-70
2023/09/23 21:38:42;;;;;;;12.10;11.00;;;;;;;;;;10215264;28;20835;-70
2023/09/23 21:43:38;;;;;;;13.63;12.43;;;;;;;;;;10222450;28;20056;-72
2023/09/23 21:48:35;;;;;;;12.13;10.93;;;;;;;;;;10221994;28;20552;-70
2023/09/23 21:53:31;;;;;;;12.95;11.65;;;;;;;;;;10251923;28;20041;-70
2023/09/23 21:58:28;;;;;;;13.50;11.50;;;;;;;;;;10266351;28;20045;-72
2023/09/23 22:03:25;;;;;;;16.67;11.30;;;;;;;;;;10230134;28;20054;-71
2023/09/23 22:08:22;;;;;;;14.45;13.07;;;;;;;;;;10220877;28;20048;-72
2023/09/23 22:13:19;;;;;;;13.77;12.57;;;;;;;;;;10258958;28;20124;-72
2023/09/23 22:18:15;;;;;;;12.98;11.77;;;;;;;;;;10245456;28;20064;-72
2023/09/23 22:23:15;;;;;;;12.93;11.75;;;;;;;;;;10252655;28;20095;-72
2023/09/23 22:28:11;;;;;;;13.77;12.32;;;;;;;;;;10247009;28;20045;-73
2023/09/23 22:33:08;;;;;;;14.40;12.98;;;;;;;;;;10255782;28;20041;-72
2023/09/23 22:38:05;;;;;;;14.02;12.65;;;;;;;;;;10272328;28;20053;-72
2023/09/23 22:43:01;;;;;;;15.18;13.65;;;;;;;;;;10238813;28;20077;-72
2023/09/23 22:47:58;;;;;;;14.63;13.32;;;;;;;;;;10229585;28;20050;-72
2023/09/23 22:52:56;;;;;;;14.13;12.88;;;;;;;;;;10247994;28;20067;-72
2023/09/23 22:57:52;;;;;;;15.55;14.00;;;;;;;;;;10244412;28;20049;-72
2023/09/23 23:02:49;;;;;;;14.38;13.02;;;;;;;;;;10250547;28;20080;-70
2023/09/23 23:07:52;;;;;;;13.45;12.30;;;;;;;;;;10236772;28;20484;-72
2023/09/23 23:12:48;;;;;;;14.50;13.13;;;;;;;;;;10251956;28;20508;-72
2023/09/23 23:17:45;;;;;;;17.60;15.82;;;;;;;;;;10245122;28;20456;-72
2023/09/23 23:22:42;;;;;;;16.17;14.82;;;;;;;;;;10246802;28;20053;-70
2023/09/23 23:27:40;;;;;;;16.85;15.38;;;;;;;;;;10270270;28;20068;-70
2023/09/23 23:32:37;;;;;;;15.93;14.52;;;;;;;;;;10264787;28;20053;-70
2023/09/23 23:37:36;;;;;;;17.98;16.17;;;;;;;;;;10242263;28;20450;-70
2023/09/23 23:42:33;;;;;;;18.33;16.60;;;;;;;;;;10225704;28;20042;-70
2023/09/23 23:47:30;;;;;;;17.10;15.60;;;;;;;;;;10249548;28;20045;-70
2023/09/23 23:52:29;;;;;;;20.42;16.60;;;;;;;;;;10268189;28;20045;-70
2023/09/23 23:57:25;;;;;;;16.10;14.73;;;;;;;;;;10269502;28;20052;-70
